| time (UTC) | temp F | wind direction | speed MPH | gust MPH | rain 1hr in | rain 24hr in | rain mn in | humidity % | barometer mb |
| 20260507111613 | 71 | 207 | 1.0 | 1.0 | 0.00 | 0.00 | 0.00 | 24 | 1009.9 |
| 20260507111109 | 71 | 192 | 1.0 | 5.0 | 0.00 | 0.00 | 0.00 | 24 | 1009.9 |
| 20260507110606 | 71 | 62 | 0.0 | 2.0 | 0.00 | 0.00 | 0.00 | 24 | 1009.9 |
| 20260507110057 | 72 | 124 | 1.0 | 1.0 | 0.00 | 0.00 | 0.00 | 24 | 1010.2 |
| 20260507105554 | 73 | 356 | 1.0 | 6.0 | 0.00 | 0.00 | 0.00 | 23 | 1009.8 |
| 20260507105050 | 73 | 46 | 3.0 | 3.0 | 0.00 | 0.00 | 0.00 | 23 | 1009.8 |
| 20260507104548 | 73 | 10 | 4.0 | 6.0 | 0.00 | 0.00 | 0.00 | 22 | 1010.0 |
| 20260507104044 | 72 | 291 | 1.0 | 5.0 | 0.00 | 0.00 | 0.00 | 23 | 1010.0 |
| 20260507103540 | 72 | 7 | 0.0 | 1.0 | 0.00 | 0.00 | 0.00 | 23 | 1009.8 |
| 20260507103037 | 73 | 18 | 0.0 | 3.0 | 0.00 | 0.00 | 0.00 | 22 | 1009.9 |
| 20260507102533 | 73 | 352 | 3.0 | 6.0 | 0.00 | 0.00 | 0.00 | 22 | 1010.3 |
| 20260507102031 | 73 | 25 | 0.0 | 1.0 | 0.00 | 0.00 | 0.00 | 22 | 1010.2 |
| 20260507101525 | 73 | 39 | 4.0 | 6.0 | 0.00 | 0.00 | 0.00 | 22 | 1010.4 |
| 20260507101022 | 72 | 61 | 1.0 | 2.0 | 0.00 | 0.00 | 0.00 | 23 | 1010.3 |
| 20260507100520 | 73 | 345 | 0.0 | 1.0 | 0.00 | 0.00 | 0.00 | 22 | 1010.5 |
| 20260507100017 | 73 | 46 | 1.0 | 5.0 | 0.00 | 0.00 | 0.00 | 22 | 1010.3 |
| 20260507095514 | 74 | 29 | 2.0 | 5.0 | 0.00 | 0.00 | 0.00 | 22 | 1010.3 |
| 20260507095011 | 74 | 110 | 4.0 | 6.0 | 0.00 | 0.00 | 0.00 | 22 | 1010.4 |
| 20260507094508 | 74 | 31 | 3.0 | 6.0 | 0.00 | 0.00 | 0.00 | 22 | 1010.6 |
| 20260507094005 | 74 | 42 | 4.0 | 5.0 | 0.00 | 0.00 | 0.00 | 21 | 1010.3 |
| 20260507093502 | 74 | 48 | 1.0 | 5.0 | 0.00 | 0.00 | 0.00 | 22 | 1010.5 |
| 20260507093001 | 74 | 13 | 2.0 | 3.0 | 0.00 | 0.00 | 0.00 | 21 | 1010.4 |
| 20260507092456 | 75 | 348 | 3.0 | 6.0 | 0.00 | 0.00 | 0.00 | 21 | 1010.5 |
| 20260507091953 | 74 | 32 | 5.0 | 7.0 | 0.00 | 0.00 | 0.00 | 21 | 1010.5 |
| 20260507091449 | 75 | 90 | 2.0 | 5.0 | 0.00 | 0.00 | 0.00 | 21 | 1010.4 |
| 20260507090945 | 75 | 16 | 2.0 | 5.0 | 0.00 | 0.00 | 0.00 | 21 | 1010.3 |
| 20260507090436 | 75 | 34 | 3.0 | 3.0 | 0.00 | 0.00 | 0.00 | 21 | 1010.5 |
| 20260507085933 | 75 | 46 | 5.0 | 8.0 | 0.00 | 0.00 | 0.00 | 20 | 1010.5 |
| 20260507085430 | 75 | 42 | 4.0 | 7.0 | 0.00 | 0.00 | 0.00 | 21 | 1010.5 |
| 20260507084927 | 75 | 42 | 4.0 | 6.0 | 0.00 | 0.00 | 0.00 | 21 | 1010.6 |
| 20260507084424 | 75 | 20 | 4.0 | 5.0 | 0.00 | 0.00 | 0.00 | 21 | 1010.4 |
| 20260507083921 | 75 | 24 | 3.0 | 7.0 | 0.00 | 0.00 | 0.00 | 21 | 1010.4 |
| 20260507083417 | 75 | 46 | 6.0 | 7.0 | 0.00 | 0.00 | 0.00 | 21 | 1010.4 |
| 20260507082914 | 75 | 39 | 3.0 | 6.0 | 0.00 | 0.00 | 0.00 | 21 | 1010.7 |
| 20260507082410 | 75 | 25 | 5.0 | 8.0 | 0.00 | 0.00 | 0.00 | 21 | 1010.4 |
| 20260507081907 | 75 | 24 | 2.0 | 2.0 | 0.00 | 0.00 | 0.00 | 22 | 1010.7 |
| 20260507081403 | 74 | 63 | 3.0 | 3.0 | 0.00 | 0.00 | 0.00 | 22 | 1010.8 |
| 20260507080859 | 75 | 17 | 2.0 | 3.0 | 0.00 | 0.00 | 0.00 | 22 | 1010.7 |
| 20260507080356 | 75 | 40 | 3.0 | 3.0 | 0.00 | 0.00 | 0.00 | 23 | 1010.8 |
| 20260507075851 | 75 | 32 | 4.0 | 7.0 | 0.00 | 0.00 | 0.00 | 22 | 1011.1 |
| 20260507075348 | 74 | 62 | 2.0 | 3.0 | 0.00 | 0.00 | 0.00 | 22 | 1010.8 |
| 20260507074844 | 72 | 54 | 1.0 | 2.0 | 0.00 | 0.00 | 0.00 | 23 | 1010.8 |
| 20260507074342 | 71 | 22 | 0.0 | 0.0 | 0.00 | 0.00 | 0.00 | 26 | 1011.0 |
| 20260507073839 | 72 | 47 | 0.0 | 1.0 | 0.00 | 0.00 | 0.00 | 24 | 1010.7 |
| 20260507073335 | 73 | 38 | 0.0 | 0.0 | 0.00 | 0.00 | 0.00 | 23 | 1010.9 |
| 20260507072832 | 73 | 65 | 1.0 | 1.0 | 0.00 | 0.00 | 0.00 | 23 | 1011.0 |
| 20260507072330 | 74 | 24 | 0.0 | 0.0 | 0.00 | 0.00 | 0.00 | 23 | 1010.9 |
| 20260507071827 | 73 | 75 | 1.0 | 1.0 | 0.00 | 0.00 | 0.00 | 22 | 1010.7 |
| 20260507071324 | 74 | 34 | 0.0 | 1.0 | 0.00 | 0.00 | 0.00 | 22 | 1010.9 |
| 20260507070820 | 75 | 12 | 0.0 | 1.0 | 0.00 | 0.00 | 0.00 | 22 | 1010.9 |
| 20260507070318 | 75 | 9 | 0.0 | 2.0 | 0.00 | 0.00 | 0.00 | 22 | 1010.9 |
| 20260507065814 | 76 | 19 | 1.0 | 3.0 | 0.00 | 0.00 | 0.00 | 21 | 1010.7 |
| 20260507065311 | 76 | 17 | 3.0 | 7.0 | 0.00 | 0.00 | 0.00 | 22 | 1010.9 |
| 20260507064808 | 76 | 353 | 1.0 | 3.0 | 0.00 | 0.00 | 0.00 | 22 | 1011.0 |
| 20260507064307 | 76 | 14 | 3.0 | 3.0 | 0.00 | 0.00 | 0.00 | 21 | 1010.8 |
| 20260507063805 | 76 | 10 | 3.0 | 3.0 | 0.00 | 0.00 | 0.00 | 21 | 1010.8 |
| 20260507063301 | 76 | 8 | 2.0 | 6.0 | 0.00 | 0.00 | 0.00 | 21 | 1011.0 |
| 20260507062758 | 75 | 3 | 4.0 | 5.0 | 0.00 | 0.00 | 0.00 | 22 | 1011.0 |
| 20260507062255 | 74 | 23 | 1.0 | 1.0 | 0.00 | 0.00 | 0.00 | 22 | 1011.0 |
| 20260507061753 | 74 | 19 | 0.0 | 1.0 | 0.00 | 0.00 | 0.00 | 23 | 1010.7 |
| 20260507061250 | 74 | 35 | 0.0 | 1.0 | 0.00 | 0.00 | 0.00 | 24 | 1010.8 |
| 20260507060748 | 75 | 17 | 0.0 | 1.0 | 0.00 | 0.00 | 0.00 | 22 | 1011.0 |
| 20260507060245 | 74 | 40 | 0.0 | 1.0 | 0.00 | 0.00 | 0.00 | 21 | 1010.8 |
| 20260507055741 | 75 | 35 | 0.0 | 0.0 | 0.00 | 0.00 | 0.00 | 22 | 1011.0 |
| 20260507055237 | 75 | 23 | 0.0 | 1.0 | 0.00 | 0.00 | 0.00 | 22 | 1010.9 |
| 20260507054733 | 74 | 39 | 0.0 | 1.0 | 0.00 | 0.00 | 0.00 | 23 | 1010.9 |
| 20260507054230 | 75 | 28 | 0.0 | 0.0 | 0.00 | 0.00 | 0.00 | 22 | 1010.9 |
| 20260507053728 | 75 | 28 | 0.0 | 1.0 | 0.00 | 0.00 | 0.00 | 21 | 1011.0 |
| 20260507053225 | 75 | 32 | 0.0 | 1.0 | 0.00 | 0.00 | 0.00 | 21 | 1010.9 |
| 20260507052724 | 76 | 38 | 0.0 | 1.0 | 0.00 | 0.00 | 0.00 | 21 | 1011.0 |
| 20260507052220 | 76 | 46 | 1.0 | 1.0 | 0.00 | 0.00 | 0.00 | 21 | 1011.0 |
| 20260507051718 | 76 | 29 | 2.0 | 2.0 | 0.00 | 0.00 | 0.00 | 22 | 1010.9 |
| 20260507051215 | 75 | 57 | 0.0 | 1.0 | 0.00 | 0.00 | 0.00 | 21 | 1010.9 |
| 20260507050711 | 76 | 24 | 0.0 | 1.0 | 0.00 | 0.00 | 0.00 | 21 | 1010.9 |
| 20260507050208 | 75 | 30 | 0.0 | 1.0 | 0.00 | 0.00 | 0.00 | 22 | 1010.8 |
| 20260507045705 | 76 | 13 | 1.0 | 1.0 | 0.00 | 0.00 | 0.00 | 22 | 1010.6 |
| 20260507045201 | 75 | 34 | 1.0 | 1.0 | 0.00 | 0.00 | 0.00 | 22 | 1010.8 |
| 20260507044658 | 75 | 30 | 0.0 | 1.0 | 0.00 | 0.00 | 0.00 | 24 | 1010.6 |
| 20260507044155 | 74 | 31 | 0.0 | 0.0 | 0.00 | 0.00 | 0.00 | 23 | 1010.8 |
| 20260507043651 | 75 | 20 | 0.0 | 0.0 | 0.00 | 0.00 | 0.00 | 23 | 1010.8 |
| 20260507043148 | 75 | 18 | 0.0 | 0.0 | 0.00 | 0.00 | 0.00 | 23 | 1010.7 |
| 20260507042644 | 75 | 39 | 0.0 | 0.0 | 0.00 | 0.00 | 0.00 | 23 | 1010.6 |
| 20260507042139 | 75 | 20 | 0.0 | 0.0 | 0.00 | 0.00 | 0.00 | 23 | 1010.6 |
| 20260507041637 | 75 | 27 | 0.0 | 0.0 | 0.00 | 0.00 | 0.00 | 24 | 1010.6 |
| 20260507041133 | 75 | 38 | 0.0 | 1.0 | 0.00 | 0.00 | 0.00 | 23 | 1010.5 |
| 20260507040630 | 75 | 22 | 0.0 | 0.0 | 0.00 | 0.00 | 0.00 | 24 | 1010.5 |
| 20260507040126 | 74 | 34 | 0.0 | 0.0 | 0.00 | 0.00 | 0.00 | 23 | 1010.4 |
| 20260507035622 | 74 | 29 | 0.0 | 0.0 | 0.00 | 0.00 | 0.00 | 24 | 1010.3 |
| 20260507035118 | 74 | 23 | 0.0 | 0.0 | 0.00 | 0.00 | 0.00 | 23 | 1010.3 |
| 20260507034615 | 75 | 23 | 0.0 | 0.0 | 0.00 | 0.00 | 0.00 | 23 | 1010.4 |
| 20260507034113 | 75 | 42 | 0.0 | 0.0 | 0.00 | 0.00 | 0.00 | 22 | 1010.2 |
| 20260507033611 | 76 | 32 | 0.0 | 0.0 | 0.00 | 0.00 | 0.00 | 22 | 1010.0 |
| 20260507033108 | 76 | 22 | 0.0 | 0.0 | 0.00 | 0.00 | 0.00 | 22 | 1010.2 |
| 20260507032606 | 77 | 48 | 0.0 | 0.0 | 0.00 | 0.00 | 0.00 | 21 | 1010.2 |
| 20260507032101 | 77 | 43 | 0.0 | 0.0 | 0.00 | 0.00 | 0.00 | 23 | 1009.9 |
| 20260507031558 | 77 | 37 | 0.0 | 0.0 | 0.00 | 0.00 | 0.00 | 22 | 1010.0 |
| 20260507031055 | 77 | 35 | 0.0 | 0.0 | 0.00 | 0.00 | 0.00 | 22 | 1009.8 |
| 20260507030551 | 77 | 28 | 0.0 | 0.0 | 0.00 | 0.00 | 0.00 | 22 | 1009.5 |
| 20260507030049 | 78 | 27 | 0.0 | 0.0 | 0.00 | 0.00 | 0.00 | 22 | 1009.6 |
| 20260507025546 | 78 | 24 | 0.0 | 1.0 | 0.00 | 0.00 | 0.00 | 23 | 1009.6 |
| 20260507025043 | 79 | 9 | 0.0 | 2.0 | 0.00 | 0.00 | 0.00 | 21 | 1009.5 |
| 20260507024541 | 79 | 323 | 1.0 | 2.0 | 0.00 | 0.00 | 0.00 | 21 | 1009.6 |
| 20260507024038 | 79 | 12 | 1.0 | 5.0 | 0.00 | 0.00 | 0.00 | 21 | 1009.5 |
| 20260507023533 | 79 | 29 | 1.0 | 2.0 | 0.00 | 0.00 | 0.00 | 21 | 1009.4 |
| 20260507023032 | 79 | 60 | 3.0 | 3.0 | 0.00 | 0.00 | 0.00 | 21 | 1009.4 |
| 20260507022528 | 79 | 62 | 2.0 | 2.0 | 0.00 | 0.00 | 0.00 | 20 | 1009.1 |
| 20260507022023 | 79 | 25 | 1.0 | 1.0 | 0.00 | 0.00 | 0.00 | 21 | 1009.2 |
| 20260507021519 | 79 | 25 | 1.0 | 2.0 | 0.00 | 0.00 | 0.00 | 20 | 1009.4 |
| 20260507021016 | 79 | 9 | 1.0 | 2.0 | 0.00 | 0.00 | 0.00 | 20 | 1009.2 |
| 20260507020514 | 80 | 39 | 1.0 | 1.0 | 0.00 | 0.00 | 0.00 | 21 | 1009.1 |
| 20260507020010 | 80 | 39 | 0.0 | 1.0 | 0.00 | 0.00 | 0.00 | 20 | 1009.2 |
| 20260507015509 | 80 | 20 | 1.0 | 1.0 | 0.00 | 0.00 | 0.00 | 20 | 1009.1 |
| 20260507015006 | 80 | 16 | 0.0 | 2.0 | 0.00 | 0.00 | 0.00 | 20 | 1009.2 |
| 20260507014502 | 80 | 318 | 3.0 | 3.0 | 0.00 | 0.00 | 0.00 | 20 | 1009.2 |
| 20260507013958 | 81 | 48 | 2.0 | 3.0 | 0.00 | 0.00 | 0.00 | 20 | 1009.0 |
| 20260507013455 | 82 | 17 | 3.0 | 5.0 | 0.00 | 0.00 | 0.00 | 19 | 1009.0 |
| 20260507012952 | 82 | 43 | 4.0 | 6.0 | 0.00 | 0.00 | 0.00 | 19 | 1009.4 |
| 20260507012449 | 83 | 25 | 3.0 | 3.0 | 0.00 | 0.00 | 0.00 | 18 | 1008.9 |
| 20260507011945 | 83 | 354 | 2.0 | 6.0 | 0.00 | 0.00 | 0.00 | 18 | 1009.1 |
| 20260507011442 | 82 | 32 | 2.0 | 3.0 | 0.00 | 0.00 | 0.00 | 19 | 1009.0 |
| 20260507010938 | 83 | 20 | 3.0 | 3.0 | 0.00 | 0.00 | 0.00 | 18 | 1009.2 |
| 20260507010433 | 82 | 29 | 3.0 | 5.0 | 0.00 | 0.00 | 0.00 | 18 | 1008.9 |
| 20260507005930 | 83 | 38 | 3.0 | 3.0 | 0.00 | 0.00 | 0.00 | 18 | 1009.0 |
| 20260507005427 | 83 | 9 | 3.0 | 5.0 | 0.00 | 0.00 | 0.00 | 18 | 1009.0 |
| 20260507004924 | 83 | 9 | 3.0 | 7.0 | 0.00 | 0.00 | 0.00 | 18 | 1009.1 |
| 20260507004420 | 84 | 352 | 2.0 | 2.0 | 0.00 | 0.00 | 0.00 | 17 | 1009.0 |
| 20260507003918 | 82 | 10 | 5.0 | 6.0 | 0.00 | 0.00 | 0.00 | 18 | 1009.0 |
| 20260507003412 | 83 | 9 | 4.0 | 5.0 | 0.00 | 0.00 | 0.00 | 18 | 1008.9 |
| 20260507002908 | 83 | 14 | 6.0 | 7.0 | 0.00 | 0.00 | 0.00 | 17 | 1009.0 |
| 20260507002404 | 83 | 354 | 4.0 | 7.0 | 0.00 | 0.00 | 0.00 | 17 | 1009.0 |
| 20260507001902 | 83 | 31 | 1.0 | 2.0 | 0.00 | 0.00 | 0.00 | 17 | 1008.9 |
| 20260507001358 | 83 | 34 | 5.0 | 6.0 | 0.00 | 0.00 | 0.00 | 18 | 1008.9 |
| 20260507000855 | 84 | 62 | 5.0 | 6.0 | 0.00 | 0.00 | 0.00 | 18 | 1009.0 |
| 20260507000350 | 84 | 359 | 2.0 | 2.0 | 0.00 | 0.00 | 0.00 | 17 | 1009.0 |
| 20260506235847 | 85 | 20 | 2.0 | 3.0 | 0.00 | 0.00 | 0.00 | 17 | 1008.8 |
| 20260506235344 | 85 | 34 | 1.0 | 3.0 | 0.00 | 0.00 | 0.00 | 17 | 1009.0 |
| 20260506234840 | 85 | 8 | 1.0 | 3.0 | 0.00 | 0.00 | 0.00 | 17 | 1008.9 |
| 20260506234338 | 83 | 3 | 0.0 | 1.0 | 0.00 | 0.00 | 0.00 | 17 | 1008.9 |
| 20260506233835 | 84 | 220 | 3.0 | 3.0 | 0.00 | 0.00 | 0.00 | 17 | 1009.3 |
| 20260506233331 | 82 | 19 | 1.0 | 3.0 | 0.00 | 0.00 | 0.00 | 18 | 1009.1 |
| 20260506232828 | 82 | 356 | 0.0 | 2.0 | 0.00 | 0.00 | 0.00 | 17 | 1009.3 |
| 20260506232324 | 85 | 33 | 5.0 | 8.0 | 0.00 | 0.00 | 0.00 | 17 | 1009.3 |
| 20260506231820 | 85 | 291 | 3.0 | 7.0 | 0.00 | 0.00 | 0.00 | 17 | 1009.2 |
| 20260506231318 | 84 | 32 | 1.0 | 3.0 | 0.00 | 0.00 | 0.00 | 17 | 1009.3 |
| 20260506230815 | 84 | 237 | 4.0 | 5.0 | 0.00 | 0.00 | 0.00 | 17 | 1009.3 |
| 20260506230312 | 84 | 208 | 3.0 | 3.0 | 0.00 | 0.00 | 0.00 | 17 | 1009.5 |
| 20260506225808 | 83 | 23 | 1.0 | 5.0 | 0.00 | 0.00 | 0.00 | 17 | 1009.4 |
| 20260506225306 | 83 | 355 | 2.0 | 5.0 | 0.00 | 0.00 | 0.00 | 17 | 1009.4 |
| 20260506224802 | 82 | 331 | 0.0 | 3.0 | 0.00 | 0.00 | 0.00 | 18 | 1009.6 |
| 20260506224259 | 81 | 295 | 3.0 | 3.0 | 0.00 | 0.00 | 0.00 | 18 | 1009.6 |
| 20260506223755 | 81 | 20 | 1.0 | 3.0 | 0.00 | 0.00 | 0.00 | 18 | 1009.8 |
| 20260506223251 | 81 | 33 | 2.0 | 7.0 | 0.00 | 0.00 | 0.00 | 19 | 1009.9 |
| 20260506222748 | 81 | 2 | 3.0 | 6.0 | 0.00 | 0.00 | 0.00 | 19 | 1009.8 |
| 20260506222244 | 82 | 77 | 6.0 | 8.0 | 0.00 | 0.00 | 0.00 | 19 | 1009.9 |
| 20260506221742 | 82 | 297 | 1.0 | 6.0 | 0.00 | 0.00 | 0.00 | 19 | 1010.0 |
| 20260506221240 | 81 | 43 | 6.0 | 7.0 | 0.00 | 0.00 | 0.00 | 19 | 1010.0 |
| 20260506220731 | 82 | 15 | 5.0 | 8.0 | 0.00 | 0.00 | 0.00 | 19 | 1009.9 |
| 20260506220226 | 82 | 14 | 0.0 | 6.0 | 0.00 | 0.00 | 0.00 | 19 | 1010.0 |
| 20260506215722 | 81 | 330 | 1.0 | 5.0 | 0.00 | 0.00 | 0.00 | 19 | 1010.3 |
| 20260506215218 | 82 | 335 | 3.0 | 10.0 | 0.00 | 0.00 | 0.00 | 19 | 1010.4 |
| 20260506214715 | 82 | 346 | 0.0 | 1.0 | 0.00 | 0.00 | 0.00 | 18 | 1010.2 |
| 20260506214212 | 81 | 207 | 4.0 | 5.0 | 0.00 | 0.00 | 0.00 | 19 | 1010.5 |
| 20260506213710 | 80 | 5 | 0.0 | 3.0 | 0.00 | 0.00 | 0.00 | 19 | 1010.8 |
| 20260506213208 | 80 | 47 | 3.0 | 7.0 | 0.00 | 0.00 | 0.00 | 20 | 1010.6 |
| 20260506212704 | 82 | 282 | 6.0 | 9.0 | 0.00 | 0.00 | 0.00 | 19 | 1010.7 |
| 20260506212200 | 82 | 299 | 4.0 | 6.0 | 0.00 | 0.00 | 0.00 | 19 | 1010.6 |
| 20260506211650 | 80 | 294 | 2.0 | 3.0 | 0.00 | 0.00 | 0.00 | 20 | 1010.8 |
| 20260506211147 | 81 | 357 | 1.0 | 3.0 | 0.00 | 0.00 | 0.00 | 20 | 1010.8 |
| 20260506210644 | 80 | 8 | 1.0 | 8.0 | 0.00 | 0.00 | 0.00 | 20 | 1011.1 |
| 20260506210140 | 80 | 317 | 1.0 | 5.0 | 0.00 | 0.00 | 0.00 | 20 | 1011.1 |
| 20260506205638 | 80 | 349 | 2.0 | 8.0 | 0.00 | 0.00 | 0.00 | 20 | 1011.1 |
| 20260506205137 | 80 | 342 | 2.0 | 6.0 | 0.00 | 0.00 | 0.00 | 21 | 1011.0 |
| 20260506204636 | 81 | 19 | 3.0 | 6.0 | 0.00 | 0.00 | 0.00 | 20 | 1011.1 |
| 20260506204132 | 81 | 56 | 3.0 | 11.0 | 0.00 | 0.00 | 0.00 | 20 | 1011.1 |
| 20260506203631 | 79 | 333 | 3.0 | 7.0 | 0.00 | 0.00 | 0.00 | 20 | 1011.1 |
| 20260506203127 | 79 | 25 | 1.0 | 6.0 | 0.00 | 0.00 | 0.00 | 21 | 1011.2 |
| 20260506202625 | 80 | 7 | 4.0 | 6.0 | 0.00 | 0.00 | 0.00 | 20 | 1011.3 |
| 20260506202121 | 79 | 16 | 5.0 | 6.0 | 0.00 | 0.00 | 0.00 | 21 | 1011.5 |
| 20260506201618 | 80 | 324 | 4.0 | 7.0 | 0.00 | 0.00 | 0.00 | 20 | 1011.3 |
| 20260506201115 | 79 | 19 | 2.0 | 6.0 | 0.00 | 0.00 | 0.00 | 21 | 1011.6 |
| 20260506200611 | 80 | 346 | 7.0 | 8.0 | 0.00 | 0.00 | 0.00 | 20 | 1011.3 |
| 20260506200108 | 80 | 301 | 3.0 | 6.0 | 0.00 | 0.00 | 0.00 | 20 | 1011.6 |
| 20260506195604 | 80 | 265 | 3.0 | 6.0 | 0.00 | 0.00 | 0.00 | 20 | 1011.5 |
| 20260506195101 | 77 | 341 | 3.0 | 3.0 | 0.00 | 0.00 | 0.00 | 21 | 1011.5 |
| 20260506194559 | 77 | 22 | 4.0 | 6.0 | 0.00 | 0.00 | 0.00 | 22 | 1011.7 |
| 20260506194055 | 79 | 8 | 3.0 | 5.0 | 0.00 | 0.00 | 0.00 | 20 | 1011.7 |
| 20260506193553 | 77 | 307 | 1.0 | 3.0 | 0.00 | 0.00 | 0.00 | 22 | 1011.9 |
| 20260506193050 | 78 | 22 | 2.0 | 5.0 | 0.00 | 0.00 | 0.00 | 23 | 1012.1 |
| 20260506192546 | 77 | 318 | 4.0 | 7.0 | 0.00 | 0.00 | 0.00 | 23 | 1012.0 |
| 20260506192042 | 77 | 18 | 3.0 | 8.0 | 0.00 | 0.00 | 0.00 | 23 | 1011.9 |
| 20260506191539 | 76 | 177 | 1.0 | 3.0 | 0.00 | 0.00 | 0.00 | 23 | 1012.0 |
| 20260506191035 | 78 | 6 | 7.0 | 8.0 | 0.00 | 0.00 | 0.00 | 22 | 1011.9 |
| 20260506190532 | 77 | 44 | 2.0 | 3.0 | 0.00 | 0.00 | 0.00 | 22 | 1012.2 |
| 20260506190030 | 77 | 20 | 5.0 | 6.0 | 0.00 | 0.00 | 0.00 | 24 | 1012.1 |
| 20260506185527 | 77 | 20 | 2.0 | 5.0 | 0.00 | 0.00 | 0.00 | 23 | 1012.3 |
| 20260506185023 | 76 | 291 | 2.0 | 6.0 | 0.00 | 0.00 | 0.00 | 23 | 1012.4 |
| 20260506184521 | 78 | 15 | 7.0 | 8.0 | 0.00 | 0.00 | 0.00 | 22 | 1012.5 |
| 20260506184018 | 78 | 303 | 3.0 | 6.0 | 0.00 | 0.00 | 0.00 | 23 | 1012.3 |
| 20260506183513 | 77 | 272 | 2.0 | 3.0 | 0.00 | 0.00 | 0.00 | 23 | 1012.5 |
| 20260506183010 | 78 | 316 | 2.0 | 5.0 | 0.00 | 0.00 | 0.00 | 23 | 1012.4 |
| 20260506182508 | 78 | 247 | 3.0 | 5.0 | 0.00 | 0.00 | 0.00 | 23 | 1012.6 |
| 20260506182004 | 76 | 286 | 3.0 | 7.0 | 0.00 | 0.00 | 0.00 | 25 | 1012.7 |
| 20260506181502 | 78 | 33 | 1.0 | 2.0 | 0.00 | 0.00 | 0.00 | 24 | 1012.6 |
| 20260506180959 | 76 | 25 | 3.0 | 3.0 | 0.00 | 0.00 | 0.00 | 25 | 1012.9 |
| 20260506180456 | 78 | 325 | 3.0 | 6.0 | 0.00 | 0.00 | 0.00 | 24 | 1012.9 |
| 20260506175952 | 76 | 15 | 0.0 | 2.0 | 0.00 | 0.00 | 0.00 | 25 | 1012.9 |
| 20260506175449 | 75 | 349 | 1.0 | 1.0 | 0.00 | 0.00 | 0.00 | 26 | 1012.7 |
| 20260506174945 | 76 | 301 | 1.0 | 2.0 | 0.00 | 0.00 | 0.00 | 26 | 1012.6 |
| 20260506174444 | 75 | 25 | 1.0 | 7.0 | 0.00 | 0.00 | 0.00 | 26 | 1013.0 |
| 20260506173940 | 76 | 27 | 6.0 | 6.0 | 0.00 | 0.00 | 0.00 | 26 | 1012.7 |
| 20260506173437 | 75 | 350 | 1.0 | 2.0 | 0.00 | 0.00 | 0.00 | 28 | 1012.6 |
| 20260506172929 | 75 | 224 | 3.0 | 3.0 | 0.00 | 0.00 | 0.00 | 27 | 1012.5 |
| 20260506172426 | 76 | 188 | 3.0 | 6.0 | 0.00 | 0.00 | 0.00 | 25 | 1012.7 |
| 20260506171922 | 74 | 343 | 5.0 | 6.0 | 0.00 | 0.00 | 0.00 | 28 | 1012.9 |
| 20260506171420 | 74 | 343 | 5.0 | 6.0 | 0.00 | 0.00 | 0.00 | 28 | 1012.9 |
| 20260506170917 | 75 | 9 | 0.0 | 3.0 | 0.00 | 0.00 | 0.00 | 28 | 1012.7 |
| 20260506170413 | 74 | 193 | 1.0 | 2.0 | 0.00 | 0.00 | 0.00 | 27 | 1012.9 |
| 20260506165907 | 74 | 5 | 1.0 | 2.0 | 0.00 | 0.00 | 0.00 | 29 | 1012.6 |
| 20260506165405 | 73 | 208 | 1.0 | 2.0 | 0.00 | 0.00 | 0.00 | 29 | 1012.3 |
| 20260506164901 | 74 | 284 | 2.0 | 2.0 | 0.00 | 0.00 | 0.00 | 29 | 1012.6 |
| 20260506164357 | 74 | 348 | 1.0 | 2.0 | 0.00 | 0.00 | 0.00 | 28 | 1012.5 |
| 20260506163855 | 72 | 349 | 1.0 | 1.0 | 0.00 | 0.00 | 0.00 | 30 | 1012.6 |
| 20260506163349 | 72 | 249 | 2.0 | 3.0 | 0.00 | 0.00 | 0.00 | 30 | 1012.6 |
| 20260506162844 | 73 | 299 | 3.0 | 5.0 | 0.00 | 0.00 | 0.00 | 29 | 1012.6 |
| 20260506162342 | 72 | 290 | 1.0 | 3.0 | 0.00 | 0.00 | 0.00 | 30 | 1012.7 |
| 20260506161835 | 73 | 205 | 1.0 | 2.0 | 0.00 | 0.00 | 0.00 | 30 | 1012.5 |
| 20260506161332 | 73 | 237 | 1.0 | 3.0 | 0.00 | 0.00 | 0.00 | 30 | 1012.5 |
| 20260506160829 | 72 | 300 | 1.0 | 2.0 | 0.00 | 0.00 | 0.00 | 30 | 1012.6 |
| 20260506160325 | 72 | 237 | 1.0 | 2.0 | 0.00 | 0.00 | 0.00 | 31 | 1012.4 |
| 20260506155824 | 71 | 175 | 2.0 | 3.0 | 0.00 | 0.00 | 0.00 | 31 | 1012.7 |
| 20260506155320 | 70 | 188 | 4.0 | 7.0 | 0.00 | 0.00 | 0.00 | 32 | 1012.4 |
| 20260506153433 | 69 | 210 | 0.0 | 3.0 | 0.00 | 0.00 | 0.00 | 33 | 1012.7 |
| 20260506152930 | 70 | 210 | 2.0 | 2.0 | 0.00 | 0.00 | 0.00 | 32 | 1012.6 |
| 20260506152427 | 69 | 160 | 1.0 | 5.0 | 0.00 | 0.00 | 0.00 | 33 | 1012.6 |
| 20260506151926 | 69 | 203 | 5.0 | 7.0 | 0.00 | 0.00 | 0.00 | 33 | 1012.5 |
| 20260506151423 | 68 | 211 | 4.0 | 5.0 | 0.00 | 0.00 | 0.00 | 34 | 1012.6 |
| 20260506150920 | 68 | 198 | 3.0 | 5.0 | 0.00 | 0.00 | 0.00 | 34 | 1012.5 |
| 20260506150416 | 68 | 221 | 3.0 | 5.0 | 0.00 | 0.00 | 0.00 | 34 | 1012.3 |
| 20260506145913 | 68 | 186 | 1.0 | 2.0 | 0.00 | 0.00 | 0.00 | 33 | 1012.6 |
| 20260506145409 | 67 | 50 | 0.0 | 1.0 | 0.00 | 0.00 | 0.00 | 34 | 1012.5 |
| 20260506144907 | 66 | 277 | 0.0 | 0.0 | 0.00 | 0.00 | 0.00 | 34 | 1012.4 |
| 20260506144403 | 65 | 3 | 0.0 | 0.0 | 0.00 | 0.00 | 0.00 | 36 | 1012.3 |
| 20260506143902 | 63 | 28 | 0.0 | 0.0 | 0.00 | 0.00 | 0.00 | 38 | 1012.3 |
| 20260506143358 | 61 | 25 | 0.0 | 1.0 | 0.00 | 0.00 | 0.00 | 40 | 1012.3 |
| 20260506142856 | 60 | 78 | 0.0 | 0.0 | 0.00 | 0.00 | 0.00 | 43 | 1012.2 |
| 20260506142354 | 60 | 57 | 0.0 | 0.0 | 0.00 | 0.00 | 0.00 | 43 | 1012.2 |
| 20260506141852 | 59 | 42 | 0.0 | 0.0 | 0.00 | 0.00 | 0.00 | 44 | 1012.2 |
| 20260506141350 | 59 | 19 | 0.0 | 0.0 | 0.00 | 0.00 | 0.00 | 46 | 1012.0 |
| 20260506140848 | 59 | 14 | 0.0 | 0.0 | 0.00 | 0.00 | 0.00 | 45 | 1012.1 |
| 20260506140344 | 59 | 333 | 0.0 | 1.0 | 0.00 | 0.00 | 0.00 | 45 | 1012.0 |
| 20260506135841 | 59 | 357 | 0.0 | 0.0 | 0.00 | 0.00 | 0.00 | 46 | 1011.8 |
| 20260506135338 | 59 | 26 | 0.0 | 0.0 | 0.00 | 0.00 | 0.00 | 45 | 1011.9 |
| 20260506134834 | 59 | 56 | 0.0 | 1.0 | 0.00 | 0.00 | 0.00 | 44 | 1011.9 |
| 20260506134331 | 59 | 29 | 0.0 | 1.0 | 0.00 | 0.00 | 0.00 | 45 | 1011.6 |
| 20260506133828 | 59 | 36 | 0.0 | 1.0 | 0.00 | 0.00 | 0.00 | 46 | 1011.9 |
| 20260506133325 | 59 | 29 | 0.0 | 1.0 | 0.00 | 0.00 | 0.00 | 44 | 1011.8 |
| 20260506132821 | 60 | 17 | 0.0 | 1.0 | 0.00 | 0.00 | 0.00 | 43 | 1011.9 |
| 20260506132318 | 60 | 323 | 0.0 | 1.0 | 0.00 | 0.00 | 0.00 | 42 | 1011.6 |
| 20260506131817 | 60 | 11 | 0.0 | 0.0 | 0.00 | 0.00 | 0.00 | 42 | 1011.4 |
| 20260506131312 | 60 | 49 | 0.0 | 0.0 | 0.00 | 0.00 | 0.00 | 40 | 1011.6 |
| 20260506130810 | 60 | 5 | 0.0 | 0.0 | 0.00 | 0.00 | 0.00 | 42 | 1011.5 |
| 20260506130306 | 60 | 12 | 0.0 | 0.0 | 0.00 | 0.00 | 0.00 | 42 | 1011.3 |
| 20260506125804 | 60 | 240 | 0.0 | 0.0 | 0.00 | 0.00 | 0.00 | 41 | 1011.2 |
| 20260506125305 | 60 | 13 | 0.0 | 0.0 | 0.00 | 0.00 | 0.00 | 40 | 1011.3 |
| 20260506124800 | 60 | 110 | 0.0 | 0.0 | 0.00 | 0.00 | 0.00 | 40 | 1011.2 |
| 20260506124257 | 61 | 27 | 0.0 | 0.0 | 0.00 | 0.00 | 0.00 | 40 | 1011.3 |
| 20260506123754 | 61 | 18 | 0.0 | 0.0 | 0.00 | 0.00 | 0.00 | 40 | 1011.1 |
| 20260506123253 | 61 | 18 | 0.0 | 0.0 | 0.00 | 0.00 | 0.00 | 39 | 1010.9 |
| 20260506122749 | 60 | 307 | 0.0 | 0.0 | 0.00 | 0.00 | 0.00 | 40 | 1011.1 |
| 20260506122247 | 61 | 32 | 0.0 | 0.0 | 0.00 | 0.00 | 0.00 | 40 | 1010.8 |
| 20260506121745 | 60 | 33 | 0.0 | 0.0 | 0.00 | 0.00 | 0.00 | 40 | 1010.8 |
| 20260506121241 | 60 | 31 | 0.0 | 0.0 | 0.00 | 0.00 | 0.00 | 41 | 1010.9 |
| 20260506120738 | 60 | 33 | 0.0 | 0.0 | 0.00 | 0.00 | 0.00 | 40 | 1010.9 |
| 20260506120236 | 60 | 32 | 0.0 | 0.0 | 0.00 | 0.00 | 0.00 | 41 | 1011.0 |
| 20260506115734 | 60 | 39 | 0.0 | 0.0 | 0.00 | 0.00 | 0.00 | 40 | 1010.8 |
| 20260506115232 | 60 | 39 | 0.0 | 0.0 | 0.00 | 0.00 | 0.00 | 42 | 1011.0 |
| 20260506114730 | 60 | 46 | 0.0 | 0.0 | 0.00 | 0.00 | 0.00 | 41 | 1010.9 |
| 20260506114227 | 61 | 39 | 0.0 | 0.0 | 0.00 | 0.00 | 0.00 | 40 | 1010.9 |
| 20260506113725 | 61 | 44 | 0.0 | 0.0 | 0.00 | 0.00 | 0.00 | 40 | 1010.7 |
| 20260506113222 | 62 | 26 | 0.0 | 0.0 | 0.00 | 0.00 | 0.00 | 39 | 1010.7 |
| 20260506112718 | 62 | 24 | 0.0 | 1.0 | 0.00 | 0.00 | 0.00 | 39 | 1010.8 |
| 20260506112216 | 63 | 44 | 0.0 | 0.0 | 0.00 | 0.00 | 0.00 | 39 | 1010.8 |